Time;durP1;ratioP1;P1;durP2;ratioP2;P2;SDS_P1;SDS_P2;PMS_P1;PMS_P2;Temp;Humidity;BMP_temperature;BMP_pressure;BME280_temperature;BME280_humidity;BME280_pressure;Samples;Min_cycle;Max_cycle;Signal;HPM_P1;HPM_P2
2022/09/07 00:00:53;;;;;;;2.35;0.82;;;20.80;99.90;;;;;;4945293;29;20169;-72
2022/09/07 00:03:19;;;;;;;2.70;0.70;;;20.70;99.90;;;;;;4941233;29;20206;-72
2022/09/07 00:05:52;;;;;;;1.27;0.65;;;20.60;99.90;;;;;;4946625;29;20192;-72
2022/09/07 00:08:25;;;;;;;2.58;0.88;;;20.50;99.90;;;;;;4952254;29;20249;-70
2022/09/07 00:10:56;;;;;;;1.45;0.82;;;20.40;99.90;;;;;;4939038;29;20182;-74
2022/09/07 00:13:24;;;;;;;2.05;0.90;;;20.30;99.90;;;;;;4949758;28;20193;-73
2022/09/07 00:15:50;;;;;;;2.83;0.80;;;20.20;99.90;;;;;;4935420;29;20173;-73
2022/09/07 00:18:15;;;;;;;1.95;0.80;;;20.20;99.90;;;;;;4936717;29;20184;-71
2022/09/07 00:20:41;;;;;;;2.78;0.90;;;20.20;99.90;;;;;;4937504;29;20182;-72
2022/09/07 00:23:10;;;;;;;1.55;0.80;;;20.10;99.90;;;;;;4934822;29;20174;-70
2022/09/07 00:25:39;;;;;;;2.20;0.73;;;20.10;99.90;;;;;;4938798;29;20189;-71
2022/09/07 00:28:06;;;;;;;1.73;0.70;;;20.10;99.90;;;;;;4937843;29;20208;-70
2022/09/07 00:30:33;;;;;;;3.55;0.80;;;20.00;99.90;;;;;;4923320;29;20191;-71
2022/09/07 00:32:58;;;;;;;2.38;1.10;;;20.00;99.90;;;;;;4935232;29;20206;-72
2022/09/07 00:35:24;;;;;;;2.70;0.90;;;20.00;99.90;;;;;;4947930;29;20170;-73
2022/09/07 00:37:50;;;;;;;1.88;1.20;;;20.00;99.90;;;;;;4946757;29;20189;-73
2022/09/07 00:40:18;;;;;;;2.30;0.82;;;20.00;99.90;;;;;;4938031;29;20184;-73
2022/09/07 00:42:43;;;;;;;0.88;0.68;;;20.00;99.90;;;;;;4937494;29;20182;-72
2022/09/07 00:45:21;;;;;;;1.63;1.00;;;20.00;99.90;;;;;;4953441;29;20181;-73
2022/09/07 00:48:07;;;;;;;1.40;0.98;;;20.00;99.90;;;;;;4938248;29;20181;-71
2022/09/07 00:50:36;;;;;;;1.75;0.85;;;19.90;99.90;;;;;;4927897;29;20182;-71
2022/09/07 00:53:13;;;;;;;2.55;0.90;;;19.90;99.90;;;;;;4934959;29;20414;-72
2022/09/07 00:55:41;;;;;;;2.15;0.95;;;19.90;99.90;;;;;;4938331;29;20173;-72
2022/09/07 00:58:08;;;;;;;1.38;0.77;;;19.90;99.90;;;;;;4954395;29;20208;-73
2022/09/07 01:00:36;;;;;;;1.48;0.80;;;19.90;99.90;;;;;;4937469;29;20205;-72
2022/09/07 01:03:03;;;;;;;2.03;0.80;;;19.90;99.90;;;;;;4938108;29;20177;-72
2022/09/07 01:05:35;;;;;;;2.67;1.00;;;19.90;99.90;;;;;;4954769;29;20252;-72
2022/09/07 01:08:04;;;;;;;0.90;0.73;;;19.80;99.90;;;;;;4952279;29;20192;-72
2022/09/07 01:10:35;;;;;;;1.10;0.70;;;19.80;99.90;;;;;;4938826;29;20201;-71
2022/09/07 01:13:04;;;;;;;1.08;0.68;;;19.80;99.90;;;;;;4954421;29;20212;-72
2022/09/07 01:16:01;;;;;;;1.40;0.77;;;19.80;99.90;;;;;;4938259;29;20174;-72
2022/09/07 01:18:34;;;;;;;1.42;0.75;;;19.80;99.90;;;;;;4939496;29;20178;-73
2022/09/07 01:21:20;;;;;;;1.42;0.65;;;19.80;99.90;;;;;;4937760;29;20209;-72
2022/09/07 01:24:01;;;;;;;2.05;0.70;;;19.80;99.90;;;;;;4953365;29;20240;-73
2022/09/07 01:27:03;;;;;;;1.02;0.90;;;19.80;99.90;;;;;;4948683;29;20182;-72
2022/09/07 01:29:33;;;;;;;0.98;0.70;;;19.80;99.90;;;;;;4933684;29;20189;-73
2022/09/07 01:32:13;;;;;;;2.15;0.77;;;19.80;99.90;;;;;;4941724;29;20178;-72
2022/09/07 01:34:42;;;;;;;1.63;0.75;;;19.80;99.90;;;;;;4928667;29;20189;-71
2022/09/07 01:37:29;;;;;;;1.17;0.75;;;19.80;99.90;;;;;;4935228;29;20186;-71
2022/09/07 01:41:06;;;;;;;2.65;1.10;;;19.80;99.90;;;;;;4925214;29;20173;-74
2022/09/07 01:43:51;;;;;;;2.78;1.30;;;19.80;99.90;;;;;;4827206;29;20181;-73
2022/09/07 01:46:26;;;;;;;2.55;1.30;;;19.80;99.90;;;;;;4924686;29;20269;-74
2022/09/07 01:48:56;;;;;;;1.75;1.23;;;19.80;99.90;;;;;;4931475;29;20207;-73
2022/09/07 01:51:30;;;;;;;2.70;1.20;;;19.70;99.90;;;;;;4956253;29;20177;-74
2022/09/07 01:54:10;;;;;;;2.65;1.38;;;19.70;99.90;;;;;;4937331;29;20231;-71
2022/09/07 01:56:42;;;;;;;4.68;1.40;;;19.70;99.90;;;;;;4938704;29;20237;-71
2022/09/07 01:59:10;;;;;;;2.78;1.38;;;19.70;99.90;;;;;;4941488;29;20184;-73
2022/09/07 02:02:22;;;;;;;3.08;1.50;;;19.70;99.90;;;;;;4942678;29;20244;-71
2022/09/07 02:05:02;;;;;;;2.20;1.20;;;19.70;99.90;;;;;;4865357;29;20247;-72
2022/09/07 02:07:51;;;;;;;2.05;1.38;;;19.70;99.90;;;;;;4850479;29;20164;-72
2022/09/07 02:10:44;;;;;;;2.88;1.42;;;19.70;99.90;;;;;;4928808;29;20197;-71
2022/09/07 02:13:41;;;;;;;1.40;1.00;;;19.70;99.90;;;;;;4956423;29;20209;-73
2022/09/07 02:16:13;;;;;;;1.30;1.00;;;19.80;99.90;;;;;;4936996;29;20269;-74
2022/09/07 02:18:48;;;;;;;1.02;0.93;;;19.80;99.90;;;;;;4942353;29;20165;-74
2022/09/07 02:21:18;;;;;;;0.88;0.80;;;19.70;99.90;;;;;;4958250;29;20204;-74
2022/09/07 02:23:59;;;;;;;1.48;0.90;;;19.80;99.90;;;;;;4957678;29;20189;-73
2022/09/07 02:26:28;;;;;;;1.98;1.20;;;19.80;99.90;;;;;;4942987;29;20189;-72
2022/09/07 02:28:54;;;;;;;1.75;0.98;;;19.80;99.90;;;;;;4954261;29;20240;-71
2022/09/07 02:31:21;;;;;;;2.63;1.20;;;19.80;99.90;;;;;;4949396;29;20188;-71
2022/09/07 02:33:47;;;;;;;1.02;0.90;;;19.80;99.90;;;;;;4966313;29;20201;-71
2022/09/07 02:36:16;;;;;;;2.38;0.95;;;19.80;99.90;;;;;;4950570;29;20205;-70
2022/09/07 02:38:42;;;;;;;1.25;0.98;;;19.80;99.90;;;;;;4946835;29;20209;-67
2022/09/07 02:41:31;;;;;;;1.20;0.75;;;19.80;99.90;;;;;;4973171;29;20190;-68
2022/09/07 02:44:01;;;;;;;1.98;0.77;;;19.80;99.90;;;;;;4954807;29;20177;-71
2022/09/07 02:46:36;;;;;;;1.80;0.90;;;19.70;99.90;;;;;;4947928;29;20190;-70
2022/09/07 02:49:12;;;;;;;1.95;1.00;;;19.70;99.90;;;;;;4961536;29;20176;-71
2022/09/07 02:51:54;;;;;;;1.00;0.70;;;19.70;99.90;;;;;;4943501;29;20184;-72
2022/09/07 02:55:08;;;;;;;2.45;0.80;;;19.70;99.90;;;;;;4946442;29;20224;-71
2022/09/07 02:57:59;;;;;;;1.15;0.68;;;19.60;99.90;;;;;;4938136;29;20213;-72
2022/09/07 03:00:30;;;;;;;1.63;0.90;;;19.60;99.90;;;;;;4941747;29;20177;-71
2022/09/07 03:03:33;;;;;;;1.42;0.80;;;19.60;99.90;;;;;;4951023;29;20307;-74
2022/09/07 03:06:03;;;;;;;1.58;0.88;;;19.60;99.90;;;;;;4961798;29;20177;-74
2022/09/07 03:08:37;;;;;;;1.55;0.90;;;19.60;99.90;;;;;;4967311;29;20173;-74
2022/09/07 03:11:07;;;;;;;1.70;0.90;;;19.60;99.90;;;;;;4958727;29;20213;-74
2022/09/07 03:13:33;;;;;;;1.98;0.80;;;19.50;99.90;;;;;;4953176;29;20269;-73
2022/09/07 03:16:01;;;;;;;2.10;1.00;;;19.50;99.90;;;;;;4948380;29;20177;-73
2022/09/07 03:18:27;;;;;;;2.00;0.98;;;19.50;99.90;;;;;;4950330;29;20197;-71
2022/09/07 03:20:54;;;;;;;1.33;1.00;;;19.50;99.90;;;;;;4950169;29;20174;-73
2022/09/07 03:23:20;;;;;;;1.17;0.80;;;19.50;99.90;;;;;;4962538;29;20182;-74
2022/09/07 03:25:49;;;;;;;1.30;0.95;;;19.50;99.90;;;;;;4946473;29;20216;-74
2022/09/07 03:28:17;;;;;;;1.75;1.00;;;19.50;99.90;;;;;;4947763;29;20208;-71
2022/09/07 03:30:48;;;;;;;3.25;1.20;;;19.40;99.90;;;;;;4972809;29;20199;-73
2022/09/07 03:33:15;;;;;;;5.13;3.50;;;19.40;99.90;;;;;;4972605;29;20201;-73
2022/09/07 03:35:45;;;;;;;2.30;2.10;;;19.40;99.90;;;;;;4970233;28;20165;-74
2022/09/07 03:38:13;;;;;;;3.08;2.28;;;19.40;99.90;;;;;;4954468;29;20244;-72
2022/09/07 03:40:39;;;;;;;1.85;1.60;;;19.40;99.90;;;;;;4948356;29;20188;-74
2022/09/07 03:43:04;;;;;;;2.97;1.30;;;19.40;99.90;;;;;;4948075;29;20202;-72
2022/09/07 03:45:30;;;;;;;9.25;7.22;;;19.40;99.90;;;;;;4964909;29;20177;-74
2022/09/07 03:47:58;;;;;;;6.10;4.35;;;19.40;99.90;;;;;;4964228;29;20184;-73
2022/09/07 03:50:24;;;;;;;3.78;3.22;;;19.40;99.90;;;;;;4966208;29;20189;-73
2022/09/07 03:52:50;;;;;;;15.00;11.02;;;19.40;99.90;;;;;;4971320;29;20205;-74
2022/09/07 03:55:15;;;;;;;7.90;5.95;;;19.40;99.90;;;;;;4951373;29;20205;-77
2022/09/07 03:57:42;;;;;;;4.90;3.20;;;19.40;99.90;;;;;;4970413;29;20216;-73
2022/09/07 04:00:08;;;;;;;2.42;2.20;;;19.40;99.90;;;;;;4969833;29;20196;-74
2022/09/07 04:02:34;;;;;;;2.72;2.20;;;19.30;99.90;;;;;;4945985;29;20272;-74
2022/09/07 04:05:02;;;;;;;2.28;1.75;;;19.30;99.90;;;;;;4965369;29;20189;-74
2022/09/07 04:07:30;;;;;;;2.08;1.70;;;19.30;99.90;;;;;;4963141;28;20201;-75
2022/09/07 04:09:56;;;;;;;3.72;1.73;;;19.30;99.90;;;;;;4962211;29;20185;-73
2022/09/07 04:12:21;;;;;;;2.80;1.50;;;19.30;99.90;;;;;;4918932;29;20257;-75
2022/09/07 04:14:47;;;;;;;1.60;1.20;;;19.30;99.90;;;;;;4928359;29;20186;-74
2022/09/07 04:17:13;;;;;;;1.67;1.10;;;19.30;99.90;;;;;;4927506;29;20504;-74
2022/09/07 04:19:39;;;;;;;1.20;1.10;;;19.30;99.90;;;;;;4937873;29;20219;-74
2022/09/07 04:22:04;;;;;;;1.52;1.20;;;19.30;99.90;;;;;;4952901;29;20196;-76
2022/09/07 04:24:32;;;;;;;2.08;1.33;;;19.20;99.90;;;;;;4952878;29;20170;-78
2022/09/07 04:26:58;;;;;;;2.10;1.40;;;19.30;99.90;;;;;;4937928;29;20189;-73
2022/09/07 04:29:23;;;;;;;1.50;1.40;;;19.20;99.90;;;;;;4946291;29;20192;-74
2022/09/07 04:31:51;;;;;;;2.47;1.80;;;19.20;99.90;;;;;;4942742;29;20205;-74
2022/09/07 04:34:17;;;;;;;2.00;1.70;;;19.20;99.90;;;;;;4931907;29;20208;-73
2022/09/07 04:36:42;;;;;;;4.07;1.83;;;19.20;99.90;;;;;;4953439;29;20169;-76
2022/09/07 04:39:11;;;;;;;2.00;1.75;;;19.20;99.90;;;;;;4953019;29;20200;-74
2022/09/07 04:41:36;;;;;;;1.92;1.73;;;19.20;99.90;;;;;;4951449;29;20238;-74
2022/09/07 04:44:07;;;;;;;1.95;1.63;;;19.20;99.90;;;;;;4936887;29;20216;-75
2022/09/07 04:46:35;;;;;;;2.00;1.75;;;19.10;99.90;;;;;;4937162;29;20264;-75
2022/09/07 04:49:07;;;;;;;2.38;2.10;;;19.10;99.90;;;;;;4948898;29;20225;-75
2022/09/07 04:51:36;;;;;;;2.88;2.40;;;19.10;99.90;;;;;;4920193;29;20182;-75
2022/09/07 04:54:02;;;;;;;3.88;2.60;;;19.10;99.90;;;;;;4936931;29;20205;-75
2022/09/07 04:56:29;;;;;;;3.63;2.72;;;19.10;99.90;;;;;;4950120;29;20197;-74
2022/09/07 04:59:00;;;;;;;3.80;3.08;;;19.00;99.90;;;;;;4920660;29;20188;-74
2022/09/07 05:01:31;;;;;;;3.58;2.72;;;19.00;99.90;;;;;;4953359;29;20189;-75
2022/09/07 05:03:59;;;;;;;4.82;2.70;;;19.00;99.90;;;;;;4937564;29;20260;-75
2022/09/07 05:06:25;;;;;;;3.83;3.15;;;19.00;99.90;;;;;;4952863;29;20191;-74
2022/09/07 05:08:52;;;;;;;3.63;3.00;;;19.00;99.90;;;;;;4937192;29;20532;-74
2022/09/07 05:11:20;;;;;;;4.28;3.28;;;18.90;99.90;;;;;;4936742;29;20201;-75
2022/09/07 05:13:46;;;;;;;4.40;3.65;;;18.90;99.90;;;;;;4953044;29;20205;-75
2022/09/07 05:16:13;;;;;;;3.58;3.17;;;18.90;99.90;;;;;;4953020;29;20180;-74
2022/09/07 05:18:41;;;;;;;4.07;2.90;;;18.90;99.90;;;;;;4938727;29;20340;-74
2022/09/07 05:21:16;;;;;;;3.75;3.00;;;18.80;99.90;;;;;;4940835;29;20180;-73
2022/09/07 05:23:49;;;;;;;3.80;3.15;;;18.80;99.90;;;;;;4956951;29;20199;-75
2022/09/07 05:26:18;;;;;;;3.35;2.88;;;18.80;99.90;;;;;;4958354;29;20336;-75
2022/09/07 05:28:49;;;;;;;3.15;2.58;;;18.80;99.90;;;;;;4940850;29;20178;-73
2022/09/07 05:31:20;;;;;;;3.50;3.20;;;18.80;99.90;;;;;;4958801;29;20192;-73
2022/09/07 05:33:51;;;;;;;3.72;3.03;;;18.80;99.90;;;;;;4963161;29;20209;-73
2022/09/07 05:36:16;;;;;;;4.00;3.30;;;18.70;99.90;;;;;;4967112;29;20173;-74
2022/09/07 05:38:42;;;;;;;4.53;3.20;;;18.70;99.90;;;;;;4965773;29;20260;-74
2022/09/07 05:41:17;;;;;;;4.68;3.50;;;18.70;99.90;;;;;;4950373;29;20212;-74
2022/09/07 05:43:44;;;;;;;3.53;3.13;;;18.70;99.90;;;;;;4950071;29;20188;-74
2022/09/07 05:46:13;;;;;;;3.53;2.80;;;18.70;99.90;;;;;;4966955;29;20205;-72
2022/09/07 05:48:42;;;;;;;3.75;2.92;;;18.80;99.90;;;;;;4977610;28;20229;-74
2022/09/07 05:51:10;;;;;;;4.03;3.17;;;18.80;99.90;;;;;;4974324;29;20205;-70
2022/09/07 05:53:39;;;;;;;5.85;3.00;;;18.80;99.90;;;;;;4970611;29;20296;-73
2022/09/07 05:56:05;;;;;;;3.95;3.15;;;18.80;99.90;;;;;;4950392;29;20306;-74
2022/09/07 05:58:31;;;;;;;3.55;3.15;;;18.80;99.90;;;;;;4963509;29;20264;-73
2022/09/07 06:01:05;;;;;;;3.53;3.20;;;18.90;99.90;;;;;;4966758;29;20177;-71
2022/09/07 06:03:34;;;;;;;4.10;3.30;;;18.90;99.90;;;;;;4966892;29;20173;-72
2022/09/07 06:06:03;;;;;;;3.83;3.05;;;18.90;99.90;;;;;;4951048;29;20185;-73
2022/09/07 06:08:30;;;;;;;4.10;3.10;;;18.90;99.90;;;;;;4952910;29;20280;-73
2022/09/07 06:10:58;;;;;;;3.75;3.08;;;18.90;99.90;;;;;;4982672;28;20184;-73
2022/09/07 06:13:26;;;;;;;3.58;3.03;;;18.90;99.90;;;;;;4955114;29;20205;-75
2022/09/07 06:15:51;;;;;;;4.13;3.42;;;19.00;99.90;;;;;;4949986;29;20219;-73
2022/09/07 06:18:20;;;;;;;4.63;3.00;;;19.00;99.90;;;;;;4966399;29;20197;-73
2022/09/07 06:20:47;;;;;;;3.83;3.25;;;19.00;99.90;;;;;;4960200;29;20216;-73
2022/09/07 06:23:13;;;;;;;3.75;3.33;;;19.00;99.90;;;;;;4949905;29;20277;-73
2022/09/07 06:25:47;;;;;;;3.33;2.88;;;19.00;99.90;;;;;;4966579;29;20192;-73
2022/09/07 06:28:13;;;;;;;3.88;3.38;;;19.00;99.90;;;;;;4965701;29;20181;-73
2022/09/07 06:30:41;;;;;;;2.97;2.67;;;19.00;99.90;;;;;;4948801;29;20252;-72
2022/09/07 06:33:06;;;;;;;4.82;2.65;;;19.00;99.90;;;;;;4930812;29;20231;-73
2022/09/07 06:35:32;;;;;;;3.10;2.53;;;19.10;99.90;;;;;;4940831;29;20209;-74
2022/09/07 06:37:58;;;;;;;3.95;2.70;;;19.10;99.90;;;;;;4967097;29;20208;-72
2022/09/07 06:40:30;;;;;;;2.90;2.58;;;19.10;99.90;;;;;;4965385;29;20184;-73
2022/09/07 06:42:56;;;;;;;3.70;2.88;;;19.20;99.90;;;;;;4965744;29;20205;-73
2022/09/07 06:45:22;;;;;;;2.45;2.25;;;19.30;99.90;;;;;;4949727;29;20203;-71
2022/09/07 06:47:50;;;;;;;3.47;2.20;;;19.40;99.90;;;;;;4949010;29;20189;-73
2022/09/07 06:50:16;;;;;;;2.13;1.92;;;19.40;99.90;;;;;;4947176;29;20277;-74
2022/09/07 06:52:42;;;;;;;2.35;1.88;;;19.50;99.90;;;;;;4963323;29;20283;-73
2022/09/07 06:55:10;;;;;;;2.10;1.90;;;19.60;99.90;;;;;;4966222;29;20185;-73
2022/09/07 06:57:35;;;;;;;2.45;1.80;;;19.70;99.90;;;;;;4966498;29;20245;-74
2022/09/07 07:00:03;;;;;;;3.95;1.67;;;19.70;99.90;;;;;;4965950;29;20188;-73
2022/09/07 07:02:34;;;;;;;1.48;1.33;;;19.80;99.90;;;;;;4966237;29;20293;-72
2022/09/07 07:05:01;;;;;;;2.65;1.63;;;19.90;99.90;;;;;;4966260;29;20224;-73
2022/09/07 07:07:29;;;;;;;1.60;1.30;;;20.00;99.90;;;;;;4949995;29;20181;-74
2022/09/07 07:09:55;;;;;;;1.83;1.63;;;20.10;99.90;;;;;;4949930;29;20212;-72
2022/09/07 07:12:23;;;;;;;2.60;1.50;;;20.10;99.90;;;;;;4964951;29;20249;-72
2022/09/07 07:14:48;;;;;;;2.28;1.90;;;20.20;99.90;;;;;;4946724;29;20185;-72
2022/09/07 07:17:14;;;;;;;2.75;1.70;;;20.30;99.90;;;;;;4951032;29;20350;-73
2022/09/07 07:19:42;;;;;;;2.25;1.40;;;20.40;99.90;;;;;;4964375;29;20178;-72
2022/09/07 07:22:08;;;;;;;2.67;1.50;;;20.50;99.90;;;;;;4964669;28;20197;-73
2022/09/07 07:24:33;;;;;;;2.55;1.45;;;20.60;99.90;;;;;;4948841;29;20192;-72
2022/09/07 07:26:59;;;;;;;2.10;1.45;;;20.70;99.90;;;;;;4947124;29;20188;-71
2022/09/07 07:29:25;;;;;;;1.95;1.40;;;20.70;99.90;;;;;;4965409;29;20209;-71
2022/09/07 07:31:50;;;;;;;1.65;1.30;;;20.80;99.90;;;;;;4948690;29;20177;-72
2022/09/07 07:34:16;;;;;;;1.80;1.27;;;20.90;99.90;;;;;;4954559;28;20193;-70
2022/09/07 07:36:42;;;;;;;2.20;1.10;;;21.00;99.90;;;;;;4953836;29;20177;-73
2022/09/07 07:39:08;;;;;;;1.65;1.30;;;21.00;99.90;;;;;;4950912;29;20205;-70
2022/09/07 07:41:39;;;;;;;1.17;1.00;;;21.10;99.90;;;;;;4946653;29;20198;-73
2022/09/07 07:44:07;;;;;;;1.30;1.20;;;21.10;99.90;;;;;;4960836;29;20274;-73
2022/09/07 07:46:33;;;;;;;2.88;1.48;;;21.20;99.90;;;;;;4967285;29;20197;-73
2022/09/07 07:49:03;;;;;;;3.00;1.25;;;21.30;99.90;;;;;;4951259;29;20237;-74
2022/09/07 07:51:29;;;;;;;2.08;1.33;;;21.40;99.90;;;;;;4951312;29;20185;-75
2022/09/07 07:53:57;;;;;;;1.38;1.10;;;21.40;99.90;;;;;;4951268;29;20295;-75
2022/09/07 07:56:23;;;;;;;2.00;1.15;;;21.50;99.90;;;;;;4966799;29;20185;-73
2022/09/07 07:58:51;;;;;;;1.40;1.30;;;21.60;99.90;;;;;;4967315;29;20189;-74
2022/09/07 08:01:19;;;;;;;1.10;1.00;;;21.70;99.90;;;;;;4949991;29;20197;-70
2022/09/07 08:03:48;;;;;;;2.42;1.35;;;21.70;99.90;;;;;;4968501;29;20185;-73
2022/09/07 08:06:19;;;;;;;1.20;1.08;;;21.80;99.90;;;;;;4967704;29;20216;-72
2022/09/07 08:08:45;;;;;;;1.48;1.10;;;21.90;99.90;;;;;;4950723;29;20217;-74
2022/09/07 08:11:17;;;;;;;1.80;1.20;;;22.00;99.90;;;;;;4967098;29;20220;-77
2022/09/07 08:13:48;;;;;;;1.52;1.10;;;22.10;99.90;;;;;;4951399;29;20185;-74
2022/09/07 08:16:17;;;;;;;1.83;1.05;;;22.20;99.90;;;;;;4945587;29;20192;-74
2022/09/07 08:18:43;;;;;;;1.10;1.00;;;22.20;99.90;;;;;;4966608;29;20185;-74
2022/09/07 08:21:16;;;;;;;1.83;1.20;;;22.30;99.90;;;;;;4967270;29;20187;-73
2022/09/07 08:23:42;;;;;;;1.48;1.05;;;22.40;99.90;;;;;;4966042;28;20189;-75
2022/09/07 08:26:08;;;;;;;1.20;1.10;;;22.50;99.90;;;;;;4965785;29;20182;-72
2022/09/07 08:28:42;;;;;;;1.58;1.10;;;22.50;99.90;;;;;;4949301;29;20220;-74
2022/09/07 08:31:11;;;;;;;1.48;1.15;;;22.60;99.90;;;;;;4948895;29;20181;-74
2022/09/07 08:33:37;;;;;;;1.85;1.00;;;22.60;99.90;;;;;;4950598;29;20201;-73
2022/09/07 08:36:07;;;;;;;1.98;1.30;;;22.70;99.90;;;;;;4949389;29;20174;-73
2022/09/07 08:38:35;;;;;;;2.90;1.10;;;22.70;99.90;;;;;;4966462;29;20188;-74
2022/09/07 08:41:02;;;;;;;2.05;1.15;;;22.80;99.90;;;;;;4949862;29;20177;-73
2022/09/07 08:43:50;;;;;;;1.05;1.00;;;22.80;99.90;;;;;;4950781;29;20246;-74
2022/09/07 08:46:43;;;;;;;1.55;1.00;;;22.90;99.90;;;;;;4951919;29;20182;-74
2022/09/07 08:49:53;;;;;;;1.88;0.82;;;22.90;99.90;;;;;;4966477;29;20208;-73
2022/09/07 08:52:26;;;;;;;1.55;1.10;;;23.00;99.90;;;;;;4962919;28;20193;-74
2022/09/07 08:55:03;;;;;;;2.85;1.10;;;23.00;99.90;;;;;;4957419;29;20265;-74
2022/09/07 08:57:33;;;;;;;1.40;1.00;;;23.10;99.90;;;;;;4953428;29;20165;-73
2022/09/07 09:00:06;;;;;;;2.40;1.25;;;23.20;99.90;;;;;;4950155;29;20181;-73
2022/09/07 09:02:37;;;;;;;1.08;0.90;;;23.10;99.90;;;;;;4954185;29;20327;-75
2022/09/07 09:05:24;;;;;;;1.83;1.10;;;23.20;99.90;;;;;;4954726;29;20230;-71
2022/09/07 09:08:14;;;;;;;1.77;1.30;;;23.20;99.90;;;;;;4956606;29;20216;-72
2022/09/07 09:10:48;;;;;;;2.60;1.70;;;23.20;99.90;;;;;;4953934;29;20178;-73
2022/09/07 09:13:25;;;;;;;4.25;1.30;;;23.20;99.90;;;;;;4968173;29;20205;-75
2022/09/07 09:16:16;;;;;;;1.63;1.20;;;23.20;99.90;;;;;;4956179;29;20183;-74
2022/09/07 09:18:47;;;;;;;1.80;1.20;;;23.30;99.90;;;;;;4956291;29;20197;-74
2022/09/07 09:21:18;;;;;;;1.45;1.10;;;23.30;99.90;;;;;;4957857;29;20229;-72
2022/09/07 09:23:47;;;;;;;1.42;1.10;;;23.40;99.90;;;;;;4957720;29;20188;-75
2022/09/07 09:26:22;;;;;;;1.40;1.00;;;23.40;99.90;;;;;;4973907;29;20252;-73
2022/09/07 09:28:48;;;;;;;3.80;1.10;;;23.50;99.90;;;;;;4959598;29;20184;-74
2022/09/07 09:31:19;;;;;;;1.98;1.10;;;23.60;99.90;;;;;;4957994;29;20232;-73
2022/09/07 09:34:04;;;;;;;1.45;1.00;;;23.70;99.90;;;;;;4958087;29;20265;-72
2022/09/07 09:36:34;;;;;;;1.20;1.10;;;23.90;99.90;;;;;;4957246;29;20241;-73
2022/09/07 09:39:20;;;;;;;1.38;1.08;;;24.00;99.90;;;;;;4956851;29;20189;-76
2022/09/07 09:41:46;;;;;;;1.58;1.15;;;24.10;99.90;;;;;;4951868;29;20205;-73
2022/09/07 09:44:16;;;;;;;1.58;1.10;;;24.20;99.90;;;;;;4970563;28;20189;-72
2022/09/07 09:46:51;;;;;;;1.33;0.98;;;24.30;99.90;;;;;;4970876;29;20201;-73
2022/09/07 09:49:21;;;;;;;2.05;1.08;;;24.30;99.90;;;;;;4959565;29;20184;-74
2022/09/07 09:51:55;;;;;;;1.77;1.10;;;24.40;99.90;;;;;;4961024;29;20184;-73
2022/09/07 09:54:41;;;;;;;2.03;1.17;;;24.50;99.90;;;;;;4958169;29;20205;-72
2022/09/07 09:57:17;;;;;;;2.17;0.95;;;24.90;99.90;;;;;;4958123;29;20204;-73
2022/09/07 09:59:46;;;;;;;1.42;1.10;;;25.40;99.90;;;;;;5066915;23;20210;-71
2022/09/07 10:02:32;;;;;;;1.35;0.95;;;25.80;99.90;;;;;;4927196;29;20273;-79
2022/09/07 10:05:00;;;;;;;1.48;0.85;;;26.20;99.90;;;;;;4927271;29;20245;-79
2022/09/07 10:07:29;;;;;;;1.42;1.00;;;26.50;99.90;;;;;;4932721;29;20202;-79
2022/09/07 10:09:55;;;;;;;0.88;0.80;;;26.60;99.90;;;;;;4936601;29;20181;-78
2022/09/07 10:12:34;;;;;;;1.38;0.90;;;26.80;99.90;;;;;;4936701;29;20174;-78
2022/09/07 10:15:02;;;;;;;0.88;0.88;;;26.90;99.90;;;;;;4937174;29;20181;-78
2022/09/07 10:17:27;;;;;;;0.80;0.70;;;27.10;99.90;;;;;;4931961;29;20185;-78
2022/09/07 10:19:59;;;;;;;1.33;0.80;;;27.30;99.90;;;;;;4922555;29;20340;-77
2022/09/07 10:22:36;;;;;;;0.80;0.80;;;27.40;99.90;;;;;;4937869;29;20286;-78
2022/09/07 10:25:23;;;;;;;1.23;0.90;;;27.40;99.90;;;;;;4920752;29;20174;-78
2022/09/07 10:28:03;;;;;;;1.48;0.90;;;27.50;99.90;;;;;;4923139;29;20296;-78
2022/09/07 10:30:34;;;;;;;1.80;1.25;;;27.50;99.90;;;;;;4938839;29;20182;-78
2022/09/07 10:33:18;;;;;;;1.33;0.88;;;27.30;99.90;;;;;;4924343;29;20213;-77
2022/09/07 10:35:56;;;;;;;1.30;0.90;;;27.20;99.90;;;;;;4926920;29;20175;-79
2022/09/07 10:38:24;;;;;;;2.70;1.17;;;27.10;99.90;;;;;;4943787;29;20181;-76
2022/09/07 10:41:06;;;;;;;2.03;1.05;;;27.30;99.90;;;;;;4945860;29;20202;-78
2022/09/07 10:43:40;;;;;;;1.27;0.90;;;27.60;99.90;;;;;;4947237;29;20178;-75
2022/09/07 10:46:21;;;;;;;1.33;0.90;;;28.00;99.90;;;;;;4936904;29;20223;-81
2022/09/07 10:49:10;;;;;;;1.38;0.90;;;28.20;99.90;;;;;;4946459;29;20196;-78
2022/09/07 10:51:57;;;;;;;1.13;0.80;;;28.30;99.90;;;;;;4939521;29;20205;-78
2022/09/07 10:54:57;;;;;;;1.88;1.00;;;28.30;99.90;;;;;;4912187;29;20221;-78
2022/09/07 10:57:40;;;;;;;2.10;1.20;;;28.20;99.90;;;;;;4922274;29;20213;-78
2022/09/07 11:00:12;;;;;;;1.38;1.00;;;27.90;99.90;;;;;;4922952;29;20252;-77
2022/09/07 11:02:49;;;;;;;2.22;1.30;;;27.70;99.90;;;;;;4939222;29;20186;-80
2022/09/07 11:05:20;;;;;;;2.28;1.05;;;27.60;99.90;;;;;;4939138;29;20239;-78
2022/09/07 11:08:11;;;;;;;1.35;1.10;;;27.50;99.90;;;;;;4938091;29;20201;-78
2022/09/07 11:10:46;;;;;;;1.42;0.90;;;27.30;99.90;;;;;;4925552;29;20182;-78
2022/09/07 11:13:16;;;;;;;1.20;0.75;;;27.20;99.90;;;;;;4938529;29;20217;-78
2022/09/07 11:15:50;;;;;;;1.70;1.02;;;27.10;99.90;;;;;;4934611;29;20253;-78
2022/09/07 11:18:24;;;;;;;1.20;1.00;;;27.00;99.90;;;;;;4938210;29;20209;-78
2022/09/07 11:20:59;;;;;;;1.67;1.00;;;27.10;99.90;;;;;;4923570;29;20186;-77
2022/09/07 11:23:54;;;;;;;1.48;1.00;;;27.40;99.90;;;;;;4938830;29;20216;-77
2022/09/07 11:26:29;;;;;;;1.35;0.90;;;27.90;99.90;;;;;;4938576;29;20205;-78
2022/09/07 11:29:19;;;;;;;1.60;0.90;;;28.20;99.90;;;;;;4925012;29;20173;-78
2022/09/07 11:31:54;;;;;;;1.40;0.93;;;28.40;99.90;;;;;;4924202;29;20197;-77
2022/09/07 11:34:27;;;;;;;1.08;0.80;;;28.50;99.90;;;;;;4929178;29;20201;-79
2022/09/07 11:37:09;;;;;;;1.10;1.00;;;28.60;99.90;;;;;;4938999;29;20178;-78
2022/09/07 11:39:43;;;;;;;1.65;0.95;;;28.50;99.90;;;;;;4921858;29;20228;-78
2022/09/07 11:42:32;;;;;;;1.02;0.80;;;28.40;99.90;;;;;;4938331;29;20179;-78
2022/09/07 11:45:04;;;;;;;1.70;1.30;;;28.20;99.90;;;;;;4904037;29;20183;-77
2022/09/07 11:47:43;;;;;;;1.83;1.10;;;28.00;99.90;;;;;;4931211;29;20189;-78
2022/09/07 11:50:22;;;;;;;1.48;0.90;;;27.80;99.90;;;;;;4938488;29;20272;-77
2022/09/07 11:53:03;;;;;;;1.10;1.00;;;27.80;99.90;;;;;;4921876;29;20213;-78
2022/09/07 11:55:39;;;;;;;1.92;0.90;;;27.80;99.90;;;;;;4938849;29;20183;-77
2022/09/07 11:58:28;;;;;;;1.90;0.80;;;27.90;99.90;;;;;;4938015;29;20201;-75
2022/09/07 12:01:13;;;;;;;1.33;1.05;;;28.10;99.90;;;;;;4915914;29;20178;-78
2022/09/07 12:04:11;;;;;;;1.35;0.95;;;28.20;99.90;;;;;;4922648;29;20182;-78
2022/09/07 12:07:01;;;;;;;1.95;1.10;;;28.30;99.90;;;;;;4906529;29;20220;-78
2022/09/07 12:09:58;;;;;;;1.90;0.90;;;28.30;99.90;;;;;;4937845;29;20168;-76
2022/09/07 12:12:49;;;;;;;1.15;0.90;;;28.30;99.90;;;;;;4903088;29;20238;-78
2022/09/07 12:15:52;;;;;;;1.13;0.70;;;28.20;99.90;;;;;;4934821;29;20249;-77
2022/09/07 12:18:44;;;;;;;2.33;0.90;;;28.00;99.90;;;;;;4910546;29;20205;-77
2022/09/07 12:21:41;;;;;;;1.33;1.00;;;27.90;99.90;;;;;;4921254;29;20175;-79
2022/09/07 12:24:57;;;;;;;1.55;1.00;;;27.80;99.90;;;;;;4920781;29;20174;-77
2022/09/07 12:27:24;;;;;;;1.67;1.10;;;27.90;99.90;;;;;;4917828;29;20178;-81
2022/09/07 12:30:10;;;;;;;2.03;1.08;;;28.20;99.90;;;;;;4935787;29;20238;-79
2022/09/07 12:32:48;;;;;;;1.50;1.20;;;28.50;99.90;;;;;;4903140;29;20243;-79
2022/09/07 12:35:31;;;;;;;1.48;0.88;;;28.80;99.90;;;;;;4926252;29;20204;-79
2022/09/07 12:38:15;;;;;;;1.83;1.00;;;29.00;99.90;;;;;;4928639;29;20173;-80
2022/09/07 12:40:59;;;;;;;1.48;0.90;;;29.20;99.90;;;;;;4910107;29;20212;-79
2022/09/07 12:43:45;;;;;;;1.40;0.80;;;29.50;99.90;;;;;;4922881;29;20178;-80
2022/09/07 12:46:38;;;;;;;1.23;0.60;;;29.80;99.90;;;;;;4922309;29;20193;-79
2022/09/07 12:49:34;;;;;;;1.60;0.95;;;29.90;99.90;;;;;;4926085;29;20193;-79
2022/09/07 12:52:48;;;;;;;1.35;0.95;;;30.10;99.90;;;;;;4933256;29;20206;-79
2022/09/07 12:55:36;;;;;;;1.25;0.90;;;30.20;99.90;;;;;;4900794;29;20204;-78
2022/09/07 12:58:15;;;;;;;1.33;1.05;;;30.40;99.90;;;;;;4920378;29;20282;-79
2022/09/07 13:01:14;;;;;;;1.85;0.80;;;30.40;99.90;;;;;;4927708;29;20188;-79
2022/09/07 13:04:11;;;;;;;2.83;0.93;;;30.60;99.90;;;;;;4929107;29;20169;-80
2022/09/07 13:07:24;;;;;;;1.85;0.80;;;30.70;99.90;;;;;;4939022;29;20194;-79
2022/09/07 13:09:58;;;;;;;1.30;0.98;;;30.70;99.90;;;;;;4850133;29;20252;-85
2022/09/07 13:12:31;;;;;;;1.40;1.00;;;30.70;99.90;;;;;;4906998;29;20221;-78
2022/09/07 13:14:59;;;;;;;1.80;1.05;;;30.70;99.90;;;;;;4922866;29;20175;-79
2022/09/07 13:17:30;;;;;;;1.38;1.02;;;30.70;99.90;;;;;;4928843;29;20444;-79
2022/09/07 13:19:56;;;;;;;1.08;0.82;;;30.50;99.90;;;;;;4922041;29;20182;-81
2022/09/07 13:22:34;;;;;;;2.03;1.05;;;30.40;99.90;;;;;;4921234;29;20325;-79